< < Back
Terminal Aerodrome Forecast


Current Version              Previous Versions:   1  2  3  4  5  6  7  8  9  

Terminal Aerodrome Forecast

868
FTUS44 KOHX 020520
TAFCSV
TAF
KCSV 020520Z 0206/0306 21005KT 6SM BR BKN100 OVC250
     FM021000 23004KT 4SM -TSRA OVC015CB
     FM021400 23007KT 6SM -SHRA OVC025
      TEMPO 0218/0222 4SM -TSRA BR BKN025CB OVC100
     FM030500 20006KT 4SM -TSRA BR OVC030CB=

Latest METAR

346
SAUS70 KWBC 022100 RRF
MTRCSV
METAR KCSV 022053Z AUTO 19007KT 10SM FEW022 FEW029 SCT036 26/20 A2995
RMK AO2 SLP122 T02560200 58016


USA.gov is the U.S. government's official web portal to all federal, state and local government web resources and services.